sensor_id;sensor_type;location;lat;lon;timestamp;pressure;altitude;pressure_sealevel;temperature;humidity
3960;BME280;1994;48.640;8.894;2022-10-16T00:01:34;96061.34;;;15.71;100.00
3960;BME280;1994;48.640;8.894;2022-10-16T00:04:01;96056.66;;;15.68;100.00
3960;BME280;1994;48.640;8.894;2022-10-16T00:06:31;96063.47;;;15.64;100.00
3960;BME280;1994;48.640;8.894;2022-10-16T00:08:58;96064.00;;;15.61;100.00
3960;BME280;1994;48.640;8.894;2022-10-16T00:11:31;96072.38;;;15.53;100.00
3960;BME280;1994;48.640;8.894;2022-10-16T00:14:05;96077.06;;;15.56;100.00
3960;BME280;1994;48.640;8.894;2022-10-16T00:16:35;96073.94;;;15.54;100.00
3960;BME280;1994;48.640;8.894;2022-10-16T00:19:00;96073.63;;;15.60;100.00
3960;BME280;1994;48.640;8.894;2022-10-16T00:21:29;96073.38;;;15.57;100.00
3960;BME280;1994;48.640;8.894;2022-10-16T00:24:02;96066.34;;;15.62;100.00
3960;BME280;1994;48.640;8.894;2022-10-16T00:26:30;96076.00;;;15.62;100.00
3960;BME280;1994;48.640;8.894;2022-10-16T00:28:56;96063.47;;;15.64;100.00
3960;BME280;1994;48.640;8.894;2022-10-16T00:31:23;96064.53;;;15.58;100.00
3960;BME280;1994;48.640;8.894;2022-10-16T00:33:58;96069.22;;;15.56;100.00
3960;BME280;1994;48.640;8.894;2022-10-16T00:36:25;96065.56;;;15.52;100.00
3960;BME280;1994;48.640;8.894;2022-10-16T00:38:56;96058.28;;;15.54;100.00
3960;BME280;1994;48.640;8.894;2022-10-16T00:41:26;96066.38;;;15.52;100.00
3960;BME280;1994;48.640;8.894;2022-10-16T00:43:58;96055.66;;;15.49;100.00
3960;BME280;1994;48.640;8.894;2022-10-16T00:46:33;96066.13;;;15.49;100.00
3960;BME280;1994;48.640;8.894;2022-10-16T00:49:10;96058.53;;;15.47;100.00
3960;BME280;1994;48.640;8.894;2022-10-16T00:51:52;96060.91;;;15.49;100.00
3960;BME280;1994;48.640;8.894;2022-10-16T00:54:26;96066.13;;;15.49;100.00
3960;BME280;1994;48.640;8.894;2022-10-16T00:56:54;96070.78;;;15.52;100.00
3960;BME280;1994;48.640;8.894;2022-10-16T00:59:37;96072.13;;;15.44;100.00
3960;BME280;1994;48.640;8.894;2022-10-16T01:02:16;96073.44;;;15.47;100.00
3960;BME280;1994;48.640;8.894;2022-10-16T01:04:51;96070.53;;;15.48;100.00
3960;BME280;1994;48.640;8.894;2022-10-16T01:10:25;96083.59;;;15.43;100.00
3960;BME280;1994;48.640;8.894;2022-10-16T01:13:07;96084.41;;;15.44;100.00
3960;BME280;1994;48.640;8.894;2022-10-16T01:16:13;96071.34;;;15.44;100.00
3960;BME280;1994;48.640;8.894;2022-10-16T01:18:45;96073.16;;;15.43;100.00
3960;BME280;1994;48.640;8.894;2022-10-16T01:21:37;96067.94;;;15.43;100.00
3960;BME280;1994;48.640;8.894;2022-10-16T01:24:40;96078.13;;;15.50;100.00
3960;BME280;1994;48.640;8.894;2022-10-16T01:27:26;96078.63;;;15.52;100.00
3960;BME280;1994;48.640;8.894;2022-10-16T01:30:00;96071.84;;;15.51;100.00
3960;BME280;1994;48.640;8.894;2022-10-16T01:32:36;96072.88;;;15.55;100.00
3960;BME280;1994;48.640;8.894;2022-10-16T01:38:06;96077.59;;;15.53;100.00
3960;BME280;1994;48.640;8.894;2022-10-16T01:40:35;96076.53;;;15.54;100.00
3960;BME280;1994;48.640;8.894;2022-10-16T01:43:10;96075.50;;;15.55;100.00
3960;BME280;1994;48.640;8.894;2022-10-16T01:45:38;96075.50;;;15.45;100.00
3960;BME280;1994;48.640;8.894;2022-10-16T01:48:06;96068.72;;;15.44;100.00
3960;BME280;1994;48.640;8.894;2022-10-16T01:50:38;96066.94;;;15.39;100.00
3960;BME280;1994;48.640;8.894;2022-10-16T01:53:07;96059.34;;;15.38;100.00
3960;BME280;1994;48.640;8.894;2022-10-16T01:55:40;96056.44;;;15.49;100.00
3960;BME280;1994;48.640;8.894;2022-10-16T01:58:10;96055.66;;;15.49;100.00
3960;BME280;1994;48.640;8.894;2022-10-16T02:00:57;96067.16;;;15.53;100.00
3960;BME280;1994;48.640;8.894;2022-10-16T02:03:23;96073.94;;;15.59;100.00
3960;BME280;1994;48.640;8.894;2022-10-16T02:05:54;96081.50;;;15.55;100.00
3960;BME280;1994;48.640;8.894;2022-10-16T02:08:24;96075.50;;;15.50;100.00
3960;BME280;1994;48.640;8.894;2022-10-16T02:10:55;96075.25;;;15.51;100.00
3960;BME280;1994;48.640;8.894;2022-10-16T02:13:40;96076.00;;;15.52;100.00
3960;BME280;1994;48.640;8.894;2022-10-16T02:16:12;96071.34;;;15.49;100.00
3960;BME280;1994;48.640;8.894;2022-10-16T02:18:38;96076.56;;;15.49;100.00
3960;BME280;1994;48.640;8.894;2022-10-16T02:21:22;96078.63;;;15.52;100.00
3960;BME280;1994;48.640;8.894;2022-10-16T02:26:49;96064.00;;;15.51;100.00
3960;BME280;1994;48.640;8.894;2022-10-16T02:29:22;96065.06;;;15.55;100.00
3960;BME280;1994;48.640;8.894;2022-10-16T02:31:52;96061.41;;;15.51;100.00
3960;BME280;1994;48.640;8.894;2022-10-16T02:34:21;96064.56;;;15.48;100.00
3960;BME280;1994;48.640;8.894;2022-10-16T02:36:50;96065.63;;;15.42;100.00
3960;BME280;1994;48.640;8.894;2022-10-16T02:39:18;96066.63;;;15.41;100.00
3960;BME280;1994;48.640;8.894;2022-10-16T02:41:45;96066.13;;;15.39;100.00
3960;BME280;1994;48.640;8.894;2022-10-16T02:44:11;96076.06;;;15.42;100.00
3960;BME280;1994;48.640;8.894;2022-10-16T02:46:37;96082.34;;;15.36;100.00
3960;BME280;1994;48.640;8.894;2022-10-16T02:49:02;96075.78;;;15.38;100.00
3960;BME280;1994;48.640;8.894;2022-10-16T02:51:28;96070.56;;;15.38;100.00
3960;BME280;1994;48.640;8.894;2022-10-16T02:53:55;96073.16;;;15.43;100.00
3960;BME280;1994;48.640;8.894;2022-10-16T02:56:20;96076.81;;;15.42;100.00
3960;BME280;1994;48.640;8.894;2022-10-16T02:58:46;96087.00;;;15.39;100.00
3960;BME280;1994;48.640;8.894;2022-10-16T03:01:12;96090.41;;;15.39;100.00
3960;BME280;1994;48.640;8.894;2022-10-16T03:03:39;96082.84;;;15.43;100.00
3960;BME280;1994;48.640;8.894;2022-10-16T03:06:05;96076.31;;;15.45;100.00
3960;BME280;1994;48.640;8.894;2022-10-16T03:08:31;96075.25;;;15.51;100.00
3960;BME280;1994;48.640;8.894;2022-10-16T03:10:57;96073.72;;;15.40;100.00
3960;BME280;1994;48.640;8.894;2022-10-16T03:13:25;96069.25;;;15.31;100.00
3960;BME280;1994;48.640;8.894;2022-10-16T03:15:51;96073.94;;;15.24;100.00
3960;BME280;1994;48.640;8.894;2022-10-16T03:18:17;96070.84;;;15.22;100.00
3960;BME280;1994;48.640;8.894;2022-10-16T03:20:43;96074.75;;;15.24;100.00
3960;BME280;1994;48.640;8.894;2022-10-16T03:23:09;96072.38;;;15.28;100.00
3960;BME280;1994;48.640;8.894;2022-10-16T03:25:35;96073.94;;;15.24;100.00
3960;BME280;1994;48.640;8.894;2022-10-16T03:28:07;96070.28;;;15.25;100.00
3960;BME280;1994;48.640;8.894;2022-10-16T03:30:35;96070.28;;;15.30;100.00
3960;BME280;1994;48.640;8.894;2022-10-16T03:33:01;96068.22;;;15.27;100.00
3960;BME280;1994;48.640;8.894;2022-10-16T03:35:26;96071.88;;;15.26;100.00
3960;BME280;1994;48.640;8.894;2022-10-16T03:37:52;96082.31;;;15.26;100.00
3960;BME280;1994;48.640;8.894;2022-10-16T03:40:18;96088.84;;;15.23;100.00
3960;BME280;1994;48.640;8.894;2022-10-16T03:42:44;96085.94;;;15.25;100.00
3960;BME280;1994;48.640;8.894;2022-10-16T03:45:11;96083.31;;;15.30;100.00
3960;BME280;1994;48.640;8.894;2022-10-16T03:47:40;96089.34;;;15.30;100.00
3960;BME280;1994;48.640;8.894;2022-10-16T03:50:07;96090.66;;;15.28;100.00
3960;BME280;1994;48.640;8.894;2022-10-16T03:52:35;96093.78;;;15.30;100.00
3960;BME280;1994;48.640;8.894;2022-10-16T03:55:02;96083.31;;;15.30;100.00
3960;BME280;1994;48.640;8.894;2022-10-16T03:57:28;96085.69;;;15.31;100.00
3960;BME280;1994;48.640;8.894;2022-10-16T03:59:53;96094.84;;;15.34;100.00
3960;BME280;1994;48.640;8.894;2022-10-16T04:02:19;96096.91;;;15.32;100.00
3960;BME280;1994;48.640;8.894;2022-10-16T04:04:45;96087.25;;;15.32;100.00
3960;BME280;1994;48.640;8.894;2022-10-16T04:07:10;96087.25;;;15.32;100.00
3960;BME280;1994;48.640;8.894;2022-10-16T04:09:36;96085.97;;;15.35;100.00
3960;BME280;1994;48.640;8.894;2022-10-16T04:12:02;96094.34;;;15.37;100.00
3960;BME280;1994;48.640;8.894;2022-10-16T04:14:28;96094.84;;;15.34;100.00
3960;BME280;1994;48.640;8.894;2022-10-16T04:16:54;96087.25;;;15.42;100.00
3960;BME280;1994;48.640;8.894;2022-10-16T04:19:19;96087.75;;;15.49;100.00
3960;BME280;1994;48.640;8.894;2022-10-16T04:21:45;96080.72;;;15.45;100.00
3960;BME280;1994;48.640;8.894;2022-10-16T04:24:11;96082.28;;;15.46;99.98
3960;BME280;1994;48.640;8.894;2022-10-16T04:26:38;96076.56;;;15.44;100.00
3960;BME280;1994;48.640;8.894;2022-10-16T04:29:07;96086.19;;;15.48;99.96
3960;BME280;1994;48.640;8.894;2022-10-16T04:31:33;96089.59;;;15.54;100.00
3960;BME280;1994;48.640;8.894;2022-10-16T04:33:59;96101.09;;;15.58;99.45
3960;BME280;1994;48.640;8.894;2022-10-16T04:36:24;96094.81;;;15.54;99.83
3960;BME280;1994;48.640;8.894;2022-10-16T04:38:50;96094.28;;;15.57;99.68
3960;BME280;1994;48.640;8.894;2022-10-16T04:41:16;96086.44;;;15.52;99.57
3960;BME280;1994;48.640;8.894;2022-10-16T04:43:41;96088.56;;;15.50;100.00
3960;BME280;1994;48.640;8.894;2022-10-16T04:46:07;96102.09;;;15.57;100.00
3960;BME280;1994;48.640;8.894;2022-10-16T04:48:33;96112.03;;;15.65;99.73
3960;BME280;1994;48.640;8.894;2022-10-16T04:50:59;96111.00;;;15.61;99.13
3960;BME280;1994;48.640;8.894;2022-10-16T04:53:25;96118.56;;;15.62;99.47
3960;BME280;1994;48.640;8.894;2022-10-16T04:55:50;96119.31;;;15.73;98.74
3960;BME280;1994;48.640;8.894;2022-10-16T04:58:17;96123.00;;;15.62;99.44
3960;BME280;1994;48.640;8.894;2022-10-16T05:00:44;96115.69;;;15.59;99.52
3960;BME280;1994;48.640;8.894;2022-10-16T05:03:09;96117.78;;;15.62;99.66
3960;BME280;1994;48.640;8.894;2022-10-16T05:05:36;96119.38;;;15.53;99.96
3960;BME280;1994;48.640;8.894;2022-10-16T05:08:02;96115.72;;;15.49;100.00
3960;BME280;1994;48.640;8.894;2022-10-16T05:10:28;96106.31;;;15.48;100.00
3960;BME280;1994;48.640;8.894;2022-10-16T05:12:54;96106.84;;;15.45;100.00
3960;BME280;1994;48.640;8.894;2022-10-16T05:15:20;96106.31;;;15.48;100.00
3960;BME280;1994;48.640;8.894;2022-10-16T05:17:52;96110.50;;;15.49;99.85
3960;BME280;1994;48.640;8.894;2022-10-16T05:20:18;96108.69;;;15.44;100.00
3960;BME280;1994;48.640;8.894;2022-10-16T05:22:46;96107.34;;;15.52;99.43
3960;BME280;1994;48.640;8.894;2022-10-16T05:25:12;96113.09;;;15.49;99.61
3960;BME280;1994;48.640;8.894;2022-10-16T05:27:37;96124.59;;;15.48;99.61
3960;BME280;1994;48.640;8.894;2022-10-16T05:30:04;96127.22;;;15.38;100.00
3960;BME280;1994;48.640;8.894;2022-10-16T05:32:30;96124.59;;;15.33;100.00
3960;BME280;1994;48.640;8.894;2022-10-16T05:34:55;96126.13;;;15.24;100.00
3960;BME280;1994;48.640;8.894;2022-10-16T05:37:21;96119.34;;;15.23;100.00
3960;BME280;1994;48.640;8.894;2022-10-16T05:39:49;96132.66;;;15.21;100.00
3960;BME280;1994;48.640;8.894;2022-10-16T05:42:15;96124.06;;;15.16;100.00
3960;BME280;1994;48.640;8.894;2022-10-16T05:44:41;96139.47;;;15.12;100.00
3960;BME280;1994;48.640;8.894;2022-10-16T05:47:07;96125.13;;;15.10;100.00
3960;BME280;1994;48.640;8.894;2022-10-16T05:49:32;96129.28;;;15.11;100.00
3960;BME280;1994;48.640;8.894;2022-10-16T05:51:58;96139.19;;;15.14;100.00
3960;BME280;1994;48.640;8.894;2022-10-16T05:54:27;96149.63;;;15.19;100.00
3960;BME280;1994;48.640;8.894;2022-10-16T05:56:52;96151.72;;;15.22;100.00
3960;BME280;1994;48.640;8.894;2022-10-16T05:59:18;96154.84;;;15.19;100.00
3960;BME280;1994;48.640;8.894;2022-10-16T06:01:44;96153.03;;;15.24;100.00
3960;BME280;1994;48.640;8.894;2022-10-16T06:04:10;96154.34;;;15.32;100.00
3960;BME280;1994;48.640;8.894;2022-10-16T06:06:36;96154.06;;;15.28;100.00
3960;BME280;1994;48.640;8.894;2022-10-16T06:09:03;96153.53;;;15.31;100.00
3960;BME280;1994;48.640;8.894;2022-10-16T06:11:31;96159.03;;;15.35;100.00
3960;BME280;1994;48.640;8.894;2022-10-16T06:14:00;96166.88;;;15.40;100.00
3960;BME280;1994;48.640;8.894;2022-10-16T06:16:28;96159.03;;;15.45;100.00
3960;BME280;1994;48.640;8.894;2022-10-16T06:18:57;96160.84;;;15.49;100.00
3960;BME280;1994;48.640;8.894;2022-10-16T06:21:25;96158.78;;;15.56;99.76
3960;BME280;1994;48.640;8.894;2022-10-16T06:23:53;96163.47;;;15.54;99.69
3960;BME280;1994;48.640;8.894;2022-10-16T06:26:25;96152.75;;;15.61;100.00
3960;BME280;1994;48.640;8.894;2022-10-16T06:28:54;96165.31;;;15.69;99.35
3960;BME280;1994;48.640;8.894;2022-10-16T06:31:21;96167.91;;;15.69;99.09
3960;BME280;1994;48.640;8.894;2022-10-16T06:33:51;96182.53;;;15.65;98.91
3960;BME280;1994;48.640;8.894;2022-10-16T06:36:20;96177.81;;;15.67;99.01
3960;BME280;1994;48.640;8.894;2022-10-16T06:38:46;96179.88;;;15.85;98.23
3960;BME280;1994;48.640;8.894;2022-10-16T06:41:16;96183.00;;;15.97;97.25
3960;BME280;1994;48.640;8.894;2022-10-16T06:43:43;96188.50;;;15.80;97.96
3960;BME280;1994;48.640;8.894;2022-10-16T06:46:12;96189.81;;;15.78;98.48
3960;BME280;1994;48.640;8.894;2022-10-16T06:48:39;96192.91;;;15.90;97.87
3960;BME280;1994;48.640;8.894;2022-10-16T06:51:14;96182.50;;;15.80;98.32
3960;BME280;1994;48.640;8.894;2022-10-16T06:53:44;96181.47;;;15.76;99.05
3960;BME280;1994;48.640;8.894;2022-10-16T06:56:13;96193.47;;;15.77;99.16
3960;BME280;1994;48.640;8.894;2022-10-16T06:58:39;96197.63;;;15.93;98.29
3960;BME280;1994;48.640;8.894;2022-10-16T07:01:06;96203.91;;;15.97;98.22
3960;BME280;1994;48.640;8.894;2022-10-16T07:03:33;96205.97;;;15.95;98.12
3960;BME280;1994;48.640;8.894;2022-10-16T07:06:10;96220.06;;;16.04;98.35
3960;BME280;1994;48.640;8.894;2022-10-16T07:08:42;96230.00;;;16.07;98.00
3960;BME280;1994;48.640;8.894;2022-10-16T07:11:17;96224.75;;;16.17;97.70
3960;BME280;1994;48.640;8.894;2022-10-16T07:13:45;96238.34;;;16.14;97.65
3960;BME280;1994;48.640;8.894;2022-10-16T07:16:16;96246.72;;;16.11;98.29
3960;BME280;1994;48.640;8.894;2022-10-16T07:18:43;96245.16;;;16.10;98.49
3960;BME280;1994;48.640;8.894;2022-10-16T07:21:21;96238.84;;;16.16;98.02
3960;BME280;1994;48.640;8.894;2022-10-16T07:23:52;96244.63;;;16.13;98.20
3960;BME280;1994;48.640;8.894;2022-10-16T07:26:18;96251.44;;;16.04;98.45
3960;BME280;1994;48.640;8.894;2022-10-16T07:28:46;96238.88;;;16.06;98.88
3960;BME280;1994;48.640;8.894;2022-10-16T07:31:14;96249.31;;;16.06;99.02
3960;BME280;1994;48.640;8.894;2022-10-16T07:33:42;96253.50;;;16.12;98.69
3960;BME280;1994;48.640;8.894;2022-10-16T07:36:12;96256.66;;;16.04;98.97
3960;BME280;1994;48.640;8.894;2022-10-16T07:38:38;96257.16;;;16.06;99.28
3960;BME280;1994;48.640;8.894;2022-10-16T07:41:07;96257.16;;;16.21;98.74
3960;BME280;1994;48.640;8.894;2022-10-16T07:43:33;96264.97;;;16.36;98.53
3960;BME280;1994;48.640;8.894;2022-10-16T07:46:00;96267.56;;;16.51;97.28
3960;BME280;1994;48.640;8.894;2022-10-16T07:48:34;96266.53;;;16.47;97.32
3960;BME280;1994;48.640;8.894;2022-10-16T07:51:03;96272.56;;;16.32;98.49
3960;BME280;1994;48.640;8.894;2022-10-16T07:53:34;96275.44;;;16.41;98.07
3960;BME280;1994;48.640;8.894;2022-10-16T07:56:06;96278.53;;;16.48;97.27
3960;BME280;1994;48.640;8.894;2022-10-16T07:58:33;96272.81;;;16.41;97.20
3960;BME280;1994;48.640;8.894;2022-10-16T08:01:04;96276.16;;;16.56;96.49
3960;BME280;1994;48.640;8.894;2022-10-16T08:03:30;96286.63;;;16.56;95.88
3960;BME280;1994;48.640;8.894;2022-10-16T08:05:57;96291.56;;;16.68;95.06
3960;BME280;1994;48.640;8.894;2022-10-16T08:08:27;96290.47;;;16.79;94.62
3960;BME280;1994;48.640;8.894;2022-10-16T08:10:53;96294.88;;;16.93;93.39
3960;BME280;1994;48.640;8.894;2022-10-16T08:13:19;96293.47;;;17.11;93.07
3960;BME280;1994;48.640;8.894;2022-10-16T08:15:46;96290.50;;;17.71;89.07
3960;BME280;1994;48.640;8.894;2022-10-16T08:18:13;96294.81;;;18.19;87.21
3960;BME280;1994;48.640;8.894;2022-10-16T08:20:43;96283.41;;;18.05;86.40
3960;BME280;1994;48.640;8.894;2022-10-16T08:23:11;96294.47;;;17.68;88.06
3960;BME280;1994;48.640;8.894;2022-10-16T08:25:37;96297.72;;;17.50;88.27
3960;BME280;1994;48.640;8.894;2022-10-16T08:28:05;96300.84;;;17.52;89.01
3960;BME280;1994;48.640;8.894;2022-10-16T08:30:31;96295.34;;;17.54;89.60
3960;BME280;1994;48.640;8.894;2022-10-16T08:32:57;96304.34;;;17.43;89.01
3960;BME280;1994;48.640;8.894;2022-10-16T08:35:24;96295.50;;;17.24;89.72
3960;BME280;1994;48.640;8.894;2022-10-16T08:37:49;96297.59;;;17.27;90.62
3960;BME280;1994;48.640;8.894;2022-10-16T08:40:22;96303.88;;;17.21;91.21
3960;BME280;1994;48.640;8.894;2022-10-16T08:48:58;96315.63;;;17.28;91.85
3960;BME280;1994;48.640;8.894;2022-10-16T08:51:31;96323.69;;;17.37;91.38
3960;BME280;1994;48.640;8.894;2022-10-16T08:56:27;96350.66;;;17.37;91.88
3960;BME280;1994;48.640;8.894;2022-10-16T08:58:54;96329.81;;;17.71;90.48
3960;BME280;1994;48.640;8.894;2022-10-16T09:01:35;96335.91;;;17.95;88.81
3960;BME280;1994;48.640;8.894;2022-10-16T09:07:32;96331.06;;;18.12;87.47
3960;BME280;1994;48.640;8.894;2022-10-16T09:10:38;96338.09;;;18.97;83.47
3960;BME280;1994;48.640;8.894;2022-10-16T09:13:36;96336.41;;;22.06;73.40
3960;BME280;1994;48.640;8.894;2022-10-16T09:16:36;96333.66;;;24.01;65.47
3960;BME280;1994;48.640;8.894;2022-10-16T09:21:40;96345.44;;;23.44;62.32
3960;BME280;1994;48.640;8.894;2022-10-16T09:24:20;96336.13;;;22.16;67.05
3960;BME280;1994;48.640;8.894;2022-10-16T09:26:47;96337.31;;;22.93;65.25
3960;BME280;1994;48.640;8.894;2022-10-16T09:29:14;96332.63;;;22.81;64.30
3960;BME280;1994;48.640;8.894;2022-10-16T09:31:41;96340.47;;;21.41;69.22
3960;BME280;1994;48.640;8.894;2022-10-16T09:34:30;96339.09;;;21.57;68.95
3960;BME280;1994;48.640;8.894;2022-10-16T09:36:59;96339.75;;;21.98;67.88
3960;BME280;1994;48.640;8.894;2022-10-16T09:39:26;96341.41;;;22.16;67.47
3960;BME280;1994;48.640;8.894;2022-10-16T09:41:52;96348.72;;;22.41;65.91
3960;BME280;1994;48.640;8.894;2022-10-16T09:44:30;96347.97;;;22.71;64.86
3960;BME280;1994;48.640;8.894;2022-10-16T09:47:17;96349.50;;;23.50;62.39
3960;BME280;1994;48.640;8.894;2022-10-16T09:50:03;96354.06;;;23.19;62.51
3960;BME280;1994;48.640;8.894;2022-10-16T09:52:34;96355.66;;;22.59;65.47
3960;BME280;1994;48.640;8.894;2022-10-16T09:55:16;96353.09;;;23.62;63.58
3960;BME280;1994;48.640;8.894;2022-10-16T09:57:54;96362.91;;;24.30;60.53
3960;BME280;1994;48.640;8.894;2022-10-16T10:00:24;96354.78;;;24.98;58.43
3960;BME280;1994;48.640;8.894;2022-10-16T10:02:50;96359.91;;;25.03;56.41
3960;BME280;1994;48.640;8.894;2022-10-16T10:08:00;96354.53;;;24.82;57.11
3960;BME280;1994;48.640;8.894;2022-10-16T10:10:34;96359.22;;;23.97;60.36
3960;BME280;1994;48.640;8.894;2022-10-16T10:13:02;96365.53;;;23.06;62.48
3960;BME280;1994;48.640;8.894;2022-10-16T10:15:34;96369.13;;;23.10;61.26
3960;BME280;1994;48.640;8.894;2022-10-16T10:18:21;96372.13;;;22.34;64.44
3960;BME280;1994;48.640;8.894;2022-10-16T10:21:01;96364.56;;;22.41;64.57
3960;BME280;1994;48.640;8.894;2022-10-16T10:23:29;96371.56;;;22.23;66.42
3960;BME280;1994;48.640;8.894;2022-10-16T10:35:02;96356.81;;;25.01;57.47
3960;BME280;1994;48.640;8.894;2022-10-16T10:37:51;96359.53;;;24.84;55.25
3960;BME280;1994;48.640;8.894;2022-10-16T10:46:02;96361.97;;;25.35;56.28
3960;BME280;1994;48.640;8.894;2022-10-16T10:57:34;96363.88;;;26.69;50.04
3960;BME280;1994;48.640;8.894;2022-10-16T11:00:43;96360.13;;;26.50;50.07
3960;BME280;1994;48.640;8.894;2022-10-16T11:03:58;96362.69;;;25.06;54.06
3960;BME280;1994;48.640;8.894;2022-10-16T11:06:36;96362.63;;;24.86;55.03
3960;BME280;1994;48.640;8.894;2022-10-16T11:09:32;96363.78;;;24.68;55.92
3960;BME280;1994;48.640;8.894;2022-10-16T11:12:15;96355.66;;;24.56;56.44
3960;BME280;1994;48.640;8.894;2022-10-16T11:17:35;96361.41;;;25.12;54.66
3960;BME280;1994;48.640;8.894;2022-10-16T11:20:28;96359.72;;;24.53;56.65
3960;BME280;1994;48.640;8.894;2022-10-16T11:23:06;96367.06;;;25.69;54.99
3960;BME280;1994;48.640;8.894;2022-10-16T11:25:34;96356.94;;;27.13;51.09
3960;BME280;1994;48.640;8.894;2022-10-16T11:28:18;96358.09;;;27.99;47.90
3960;BME280;1994;48.640;8.894;2022-10-16T11:30:53;96353.63;;;28.58;46.33
3960;BME280;1994;48.640;8.894;2022-10-16T11:33:51;96355.00;;;28.52;46.14
3960;BME280;1994;48.640;8.894;2022-10-16T11:36:36;96353.94;;;29.00;45.57
3960;BME280;1994;48.640;8.894;2022-10-16T11:39:21;96340.38;;;28.46;46.23
3960;BME280;1994;48.640;8.894;2022-10-16T11:51:11;96331.00;;;27.10;45.72
3960;BME280;1994;48.640;8.894;2022-10-16T11:53:53;96339.63;;;27.07;44.65
3960;BME280;1994;48.640;8.894;2022-10-16T11:56:23;96336.06;;;26.79;45.97
3960;BME280;1994;48.640;8.894;2022-10-16T11:59:16;96337.91;;;26.22;46.75
3960;BME280;1994;48.640;8.894;2022-10-16T12:04:47;96338.41;;;25.83;46.96
3960;BME280;1994;48.640;8.894;2022-10-16T12:07:23;96327.84;;;25.74;47.35
3960;BME280;1994;48.640;8.894;2022-10-16T12:09:50;96330.16;;;25.76;47.65
3960;BME280;1994;48.640;8.894;2022-10-16T12:17:49;96332.50;;;25.57;49.08
3960;BME280;1994;48.640;8.894;2022-10-16T12:20:33;96333.38;;;25.40;49.50
3960;BME280;1994;48.640;8.894;2022-10-16T12:23:06;96337.19;;;25.22;50.43
3960;BME280;1994;48.640;8.894;2022-10-16T12:25:39;96336.69;;;25.00;50.52
3960;BME280;1994;48.640;8.894;2022-10-16T12:30:53;96349.00;;;24.58;51.96
3960;BME280;1994;48.640;8.894;2022-10-16T12:33:26;96334.84;;;24.46;52.53
3960;BME280;1994;48.640;8.894;2022-10-16T12:35:53;96338.56;;;24.62;52.36
3960;BME280;1994;48.640;8.894;2022-10-16T12:41:08;96334.34;;;24.61;53.37
3960;BME280;1994;48.640;8.894;2022-10-16T12:43:43;96328.59;;;24.59;52.63
3960;BME280;1994;48.640;8.894;2022-10-16T12:48:37;96328.34;;;24.81;53.21
3960;BME280;1994;48.640;8.894;2022-10-16T12:54:12;96327.13;;;25.45;51.32
3960;BME280;1994;48.640;8.894;2022-10-16T13:06:04;96337.56;;;25.91;48.42
3960;BME280;1994;48.640;8.894;2022-10-16T13:22:58;96347.34;;;25.29;51.04
3960;BME280;1994;48.640;8.894;2022-10-16T13:26:01;96352.50;;;25.25;51.20
3960;BME280;1994;48.640;8.894;2022-10-16T13:28:33;96347.41;;;25.12;50.61
3960;BME280;1994;48.640;8.894;2022-10-16T13:31:01;96343.38;;;25.06;50.64
3960;BME280;1994;48.640;8.894;2022-10-16T13:33:37;96347.19;;;24.88;51.69
3960;BME280;1994;48.640;8.894;2022-10-16T13:36:04;96339.78;;;24.73;52.56
3960;BME280;1994;48.640;8.894;2022-10-16T13:38:34;96343.38;;;24.60;52.68
3960;BME280;1994;48.640;8.894;2022-10-16T13:41:17;96335.88;;;24.53;52.75
3960;BME280;1994;48.640;8.894;2022-10-16T13:43:50;96349.00;;;24.41;52.39
3960;BME280;1994;48.640;8.894;2022-10-16T13:46:23;96342.47;;;24.39;53.42
3960;BME280;1994;48.640;8.894;2022-10-16T13:49:10;96339.69;;;24.35;52.54
3960;BME280;1994;48.640;8.894;2022-10-16T13:51:37;96337.66;;;24.41;52.66
3960;BME280;1994;48.640;8.894;2022-10-16T13:54:05;96341.38;;;24.40;52.92
3960;BME280;1994;48.640;8.894;2022-10-16T13:56:32;96347.63;;;24.27;52.96
3960;BME280;1994;48.640;8.894;2022-10-16T13:59:04;96347.03;;;24.30;53.39
3960;BME280;1994;48.640;8.894;2022-10-16T14:01:42;96348.88;;;24.38;53.02
3960;BME280;1994;48.640;8.894;2022-10-16T14:04:11;96348.72;;;24.34;55.29
3960;BME280;1994;48.640;8.894;2022-10-16T14:06:42;96348.09;;;24.29;53.84
3960;BME280;1994;48.640;8.894;2022-10-16T14:09:27;96343.00;;;24.24;52.98
3960;BME280;1994;48.640;8.894;2022-10-16T14:12:09;96353.41;;;24.12;53.11
3960;BME280;1994;48.640;8.894;2022-10-16T14:14:45;96353.41;;;24.12;53.00
3960;BME280;1994;48.640;8.894;2022-10-16T14:17:32;96356.06;;;24.12;54.04
3960;BME280;1994;48.640;8.894;2022-10-16T14:20:04;96348.44;;;24.19;53.62
3960;BME280;1994;48.640;8.894;2022-10-16T14:22:34;96348.09;;;24.20;52.90
3960;BME280;1994;48.640;8.894;2022-10-16T14:25:02;96360.44;;;24.08;53.91
3960;BME280;1994;48.640;8.894;2022-10-16T14:27:38;96355.59;;;24.10;53.11
3960;BME280;1994;48.640;8.894;2022-10-16T14:30:12;96361.84;;;24.14;53.24
3960;BME280;1994;48.640;8.894;2022-10-16T14:32:42;96360.59;;;24.11;52.08
3960;BME280;1994;48.640;8.894;2022-10-16T14:35:36;96367.75;;;24.11;52.22
3960;BME280;1994;48.640;8.894;2022-10-16T14:38:04;96364.16;;;24.07;53.17
3960;BME280;1994;48.640;8.894;2022-10-16T14:40:36;96370.69;;;23.84;52.74
3960;BME280;1994;48.640;8.894;2022-10-16T14:43:04;96362.75;;;23.84;53.63
3960;BME280;1994;48.640;8.894;2022-10-16T14:45:34;96362.13;;;23.78;54.08
3960;BME280;1994;48.640;8.894;2022-10-16T14:48:16;96363.53;;;23.76;55.01
3960;BME280;1994;48.640;8.894;2022-10-16T14:50:46;96370.22;;;23.65;54.64
3960;BME280;1994;48.640;8.894;2022-10-16T14:53:12;96368.16;;;23.62;55.11
3960;BME280;1994;48.640;8.894;2022-10-16T14:55:39;96364.13;;;23.56;55.94
3960;BME280;1994;48.640;8.894;2022-10-16T14:58:11;96361.00;;;23.45;56.47
3960;BME280;1994;48.640;8.894;2022-10-16T15:00:40;96368.09;;;23.28;56.56
3960;BME280;1994;48.640;8.894;2022-10-16T15:03:05;96360.72;;;23.16;56.69
3960;BME280;1994;48.640;8.894;2022-10-16T15:05:34;96356.38;;;23.12;56.30
3960;BME280;1994;48.640;8.894;2022-10-16T15:08:00;96363.00;;;23.01;57.20
3960;BME280;1994;48.640;8.894;2022-10-16T15:10:27;96358.66;;;22.96;57.91
3960;BME280;1994;48.640;8.894;2022-10-16T15:12:54;96355.06;;;22.92;57.48
3960;BME280;1994;48.640;8.894;2022-10-16T15:15:37;96351.63;;;22.92;58.27
3960;BME280;1994;48.640;8.894;2022-10-16T15:18:04;96353.50;;;22.91;59.10
3960;BME280;1994;48.640;8.894;2022-10-16T15:20:34;96357.03;;;22.87;59.18
3960;BME280;1994;48.640;8.894;2022-10-16T15:23:03;96354.72;;;22.85;59.66
3960;BME280;1994;48.640;8.894;2022-10-16T15:25:43;96353.94;;;22.85;59.92